Owensville, IN

12:40 PM CDT on August 26, 2016 (GMT -0500)
1 Block West of Oakland City University | | Change Station

Elev 490 ft 38.34 °N, 87.35 °W | Updated 3 seconds ago

Partly Cloudy
Partly Cloudy
90.5 °F
Feels Like 104 °F
N
0.0
Wind Variable Wind from SE
Gusts 7.0 mph

Today
High -- | Low -- °F
--% Chance of Precip.
Yesterday
High -- | Low -- °F
Precip. -- in
Pressure 30.10 in
Visibility 10.0 miles
Clouds Few 4100 ft
Heat Index 104 °F
Dew Point 77 °F
Humidity 65%
Rainfall 0.00 in
Snow Depth Not available.
6:15 AM 7:28 PM
Waning Crescent, 33% visible
METAR KEVV 261654Z 13005KT 10SM FEW041 32/23 A3011 RMK AO2 SLP192 T03220228 $
Pressure 30.10 in
Visibility 10.0 miles
Clouds Few 4100 ft
Heat Index 104 °F
Dew Point 77 °F
Humidity 65%
Rainfall 0.00 in
Snow Depth Not available.
6:15 AM 7:28 PM
Waning Crescent, 33% visible
METAR KEVV 261654Z 13005KT 10SM FEW041 32/23 A3011 RMK AO2 SLP192 T03220228 $

10-Day Weather Forecast

Almanac

Astronomy

Aug. 26, 2016 Rise Set
Actual Time
Civil Twilight
Nautical Twilight
Astronomical Twilight
Moon
Length of Visible Light
Length of Day
Tomorrow will be .
, % of the Moon is Illuminated

Today's Extremes

State Highs State Lows

Community

WunderPhotos

Upload Photos

1,935,151 photos uploaded!

WunderBlog® & News

Nearby

Air Quality

  Air Quality AQ Index Pollutant
Not available.

Snow Depth

Station Depth Elevation

Earthquake Activity

City Distance Mag. Time & Date
Minimum magnitude displayed is 2.5.

Coastal Water Temperatures

Place Temperature

Stations

Nearby Weather Stations

Station Location Temp. Windchill Dew Point Humidity Wind Precip. Elev Updated Type
                   

Watches & Warnings

There are currently no watches in effect.